Warning: Javascript must be enabled to use all the features on this page!


Page Loading - Please Wait...

Click to hideNews Bulletins

Peak Streamflow for North Dakota

Click to hide state-specific text

USGS 05054000 RED RIVER OF THE NORTH AT FARGO, ND

Cass County, North Dakota
Hydrologic Unit Code 09020104
Latitude  46°51'40", Longitude  96°47'00" NAD27
Drainage area 6,800  square miles
Gage datum 862.88 feet above NAVD88
Output formats
Table
Graph
Tab-separated file
peakfq (watstore) format
Reselect output format
Water
Year
Date Gage
Height
(feet)
Stream-
flow
(cfs)
1897 1897-04-07 39.103 25,0007
1902 1902-05-23 10.503 1,1801
1903 1903-04-06 13.903 2,4501
1904 1904-04-20 21.303 5,2201
1905 1905-05-17 18.403 4,2501
1906 1906-04-09 15.503 3,0501
1907 1907-03-31 29.803 7,0001
1908 1908-06-13 14.703 2,6001
1909 1909-05-30 12.502,3 1,7801
1910 1910-03-19 23.103 5,0001,2
1911 1911-04-11 8.703 6081
1912 1912-05-14 10.603 1,1001
1913 1913-07-08 11.903 1,5601
1914 1914-06-12 16.103 3,140
1915 1915-07-03 9.733 3,130
1916 1916-07-11 21.142,3 7,740
1917 1917-04-03 17.801,3 5,240
1918 1918-03-31 6.873 874
1919 1919-04-06 6.503 680
1920 1920-03-28 17.203 6,200
1921 1921-04-06 8.403 1,970
1922 1922-04-11 14.703 5,200
1923 1923-06-29 11.603 3,960
1924 1924-04-30 6.203 530
1925 1925-06-21 7.003 940
1926 1926-03-24 8.003 1,600
1927 1927-03-19 9.103 2,650
1929 1929-03-20 12.803,6 4,440
1930 1930-03-17 10.003 1,340
1931 1931-04-03 8.553 365
1932 1932-04-11 9.453 875
1933 1933-04-05 9.043 605
1934 1934-04-10 8.553 323
1935 1935-03-20 9.723 942
1936 1936-04-14 9.903 1,050
1937 1937-04-12 10.173 1,390
1938 1938-05-02 10.023 1,350
1939 1939-03-31 13.003 3,870
1940 1940-04-08 9.633 1,030
1941 1941-04-03 10.103 1,390
1942 1942-06-11 12.273 3,3806
1943 1943-04-07 28.403 16,0006
1944 1944-06-10 14.263 4,1506
1945 1945-03-22 20.703 7,7006
1946 1946-03-27 17.133 5,9706
1947 1947-04-15 22.933 9,3006
1948 1948-04-10 12.453 3,3906
1949 1949-07-12 11.273 2,6606
1950 1950-04-07 20.883 7,8006
1951 1951-04-11 20.733 8,0106
1952 1952-04-16 28.793 16,3006
1953 1953-06-01 18.053 6,7206
1954 1954-07-04 10.533 1,9206
1955 1955-04-04 11.123 2,7606
1956 1956-04-16 12.543 3,8706
1957 1957-04-24 11.103 2,5406
1958 1958-07-06 10.903 2,2806
1959 1959-07-08 10.423 1,2506
1960 1960-04-08 12.481,3 3,9006
1961 1961-06-09 9.243 1,0206
1962 1962-06-14 22.833 9,5806
1963 1963-06-14 19.976 4,9306
1964 1964-04-18 16.22 2,4006
1965 1965-04-15 30.50 11,4006
1966 1966-03-22 30.16 10,7006
1967 1967-06-19 22.34 5,9006
1968 1968-04-30 14.712 7886
1969 1969-04-15 37.34 25,3006
1970 1970-06-18 16.27 2,4806
1971 1971-07-07 15.87 1,9106
1972 1972-03-24 25.36 7,2506
1973 1973-03-15 16.411 1,9506
1974 1974-04-14 20.25 4,1506
1975 1975-07-04 33.26 13,2006
1976 1976-03-30 18.70 3,2006
1977 1977-07-04 14.99 8786
1978 1978-04-02 34.41 17,5006
1979 1979-04-19 34.93 17,3006
1980 1980-04-05 20.74 5,4706
1981 1981-05-24 15.84 1,7106
1982 1982-04-04 25.071 5,9206
1983 1983-07-04 15.99 1,7506
1984 1984-04-01 28.27 9,5506
1985 1985-06-05 20.08 4,6906
1986 1986-04-02 27.19 8,6406
1987 1987-03-27 17.75 3,3006
1988 1988-03-11 15.10 9816
1989 1989-04-09 35.39 18,9006
1990 1990-06-02 15.40 1,2206
1991 1991-07-06 16.99 2,6306
1992 1992-06-19 16.93 2,5901,6
1993 1993-04-05 28.27 10,1006
1994 1994-04-03 26.69 11,2006
1995 1995-03-22 28.37 11,0006
1996 1996-04-15 28.75 9,9406
1997 1997-04-17 39.572 28,0006
1998 1998-05-19 24.87 8,6106
1999 1999-03-22 20.811 4,9002,6
2000 2000-06-20 22.202 5,6306
2001 2001-04-14 36.69 20,3006
2002 2002-07-13 18.862 4,2506
2003 2003-06-30 22.63 6,7106
2004 2004-06-03 20.47 5,4306
2005 2005-06-18 28.18 9,8106
2006 2006-04-05 37.13 19,9006
2007 2007-06-08 30.842 13,5006
2008 2008-05-05 19.502 4,8406
2009 2009-03-28 40.84 29,5006
2010 2010-03-21 36.99 21,2006
2011 2011-04-09 38.81 27,2006
2012 2012-03-18 17.83 4,1206
2013 2013-04-30 33.182 16,2006
2014 2014-06-23 27.85 10,4006
2015 2015-06-01 19.20 4,9206
2016 2016-07-14 17.12 3,3706
2017 2017-02-24 22.26 5,6601,2,6
2018 2018-04-19 18.64 4,5906
2019 2019-04-08 35.04 19,7006
2020 2020-04-01 28.19 11,8006
2021 2021-04-11 16.78 2,9606
?
  Peak Gage-Height Qualification Codes.
?
  Peak Streamflow Qualification Codes.